This is the latest recevied weather packets stored in our database for station/object KA3RQR. If no packets are shown the sender has not sent any weather packets the latest 10 day(s).
| Time | Temp. | Humidity | Pressure | Rain* | Wind** | Luminosity | Snow |
|---|---|---|---|---|---|---|---|
| 1777743450 | 13.33° C | 47% | 1014 hPa | 0 mm | - | 176 W/m² | - |
| 1777741935 | 13.33° C | 52% | 1014.3 hPa | 0 mm | - | 245 W/m² | - |
| 1777741631 | 12.78° C | 48% | 1014 hPa | 0 mm | - | 247 W/m² | - |
| 1777741024 | 13.33° C | 48% | 1014.1 hPa | 0 mm | - | 233 W/m² | - |
| 1777739810 | 12.78° C | 53% | 1014.4 hPa | 0 mm | - | 152 W/m² | - |
| 1777739507 | 12.22° C | 56% | 1014.5 hPa | 0 mm | - | 130 W/m² | - |
| 1777739204 | 12.22° C | 55% | 1014.6 hPa | 0 mm | - | 155 W/m² | - |
| 1777738901 | 12.22° C | 54% | 1014.5 hPa | 0 mm | - | 177 W/m² | - |
| 1777738598 | 12.22° C | 56% | 1014.5 hPa | 0 mm | - | 184 W/m² | - |
| 1777738295 | 11.67° C | 56% | 1014.4 hPa | 0 mm | - | 175 W/m² | - |
| 1777737993 | 11.67° C | 55% | 1014.6 hPa | 0 mm | - | 169 W/m² | - |
| 1777737692 | 12.22° C | 58% | 1014.7 hPa | 0 mm | - | 171 W/m² | - |
| 1777736154 | 11.67° C | 60% | 1014.8 hPa | 0 mm | - | 170 W/m² | - |
| 1777735851 | 11.67° C | 60% | 1014.9 hPa | 0 mm | - | 176 W/m² | - |
| 1777735549 | 11.67° C | 61% | 1015 hPa | 0 mm | - | 181 W/m² | - |
| 1777735246 | 11.11° C | 59% | 1014.7 hPa | 0 mm | - | 186 W/m² | - |
| 1777734943 | 10.56° C | 59% | 1014.8 hPa | 0 mm | - | 165 W/m² | - |
| 1777734640 | 10.56° C | 59% | 1014.7 hPa | 0 mm | - | 140 W/m² | - |
| 1777734338 | 10.56° C | 60% | 1015 hPa | 0 mm | - | 143 W/m² | - |
| 1777734033 | 10.56° C | 60% | 1015.1 hPa | 0 mm | - | 147 W/m² | - |
| 1777733730 | 10.56° C | 62% | 1015.1 hPa | 0 mm | - | 149 W/m² | - |
| 1777733427 | 10.56° C | 62% | 1014.9 hPa | 0 mm | - | 146 W/m² | - |
| 1777733123 | 10.56° C | 62% | 1014.8 hPa | 0 mm | - | 144 W/m² | - |
| 1777732820 | 10.56° C | 63% | 1014.8 hPa | 0 mm | - | 147 W/m² | - |
| 1777732516 | 10° C | 63% | 1015 hPa | 0 mm | - | 147 W/m² | - |
* Rain latest hour (hover to see other rain measurements)
** Current wind speed in m/s (hover to see current wind gust speed)